Terminal Aerodrome Forecast
Issued by NWS

Home | Current Version | Previous Version | Text Only | Print | Product List | Glossary On
Versions: 1 2 3 4 5 6 7 8 9 10 11 12 13 14 15 16 17 18 19 20 21 22
247
FTUS41 KCLE 132037 AAB
TAFFDY
TAF AMD
KFDY 132037Z 1321/1418 16010G20KT P6SM OVC035
     FM132300 19010KT 3/4SM -SN OVC025
      TEMPO 1323/1324 OVC015
     FM140000 19010KT 2SM -SHSN BKN015 OVC035
      TEMPO 1400/1402 OVC010
     FM140400 30013KT P6SM BKN007 OVC015
     FM141500 32007KT P6SM FEW015 SCT035=

USA.gov is the U.S. government's official web portal to all federal, state and local government web resources and services.